sensor_id;sensor_type;location;lat;lon;timestamp;P1;durP1;ratioP1;P2;durP2;ratioP2
54269;SDS011;40181;51.560;13.000;2023-02-22T00:02:18;4.05;;;3.20;;
54269;SDS011;40181;51.560;13.000;2023-02-22T00:04:53;4.35;;;2.70;;
54269;SDS011;40181;51.560;13.000;2023-02-22T00:07:24;5.63;;;3.90;;
54269;SDS011;40181;51.560;13.000;2023-02-22T00:09:53;5.93;;;3.08;;
54269;SDS011;40181;51.560;13.000;2023-02-22T00:12:24;5.07;;;3.50;;
54269;SDS011;40181;51.560;13.000;2023-02-22T00:14:54;7.18;;;4.40;;
54269;SDS011;40181;51.560;13.000;2023-02-22T00:17:23;4.95;;;3.85;;
54269;SDS011;40181;51.560;13.000;2023-02-22T00:19:54;4.72;;;3.20;;
54269;SDS011;40181;51.560;13.000;2023-02-22T00:22:26;6.20;;;3.85;;
54269;SDS011;40181;51.560;13.000;2023-02-22T00:24:55;5.10;;;3.80;;
54269;SDS011;40181;51.560;13.000;2023-02-22T00:27:24;6.10;;;4.80;;
54269;SDS011;40181;51.560;13.000;2023-02-22T00:29:54;5.07;;;3.78;;
54269;SDS011;40181;51.560;13.000;2023-02-22T00:32:24;5.65;;;3.85;;
54269;SDS011;40181;51.560;13.000;2023-02-22T00:34:53;6.00;;;4.22;;
54269;SDS011;40181;51.560;13.000;2023-02-22T00:37:22;8.63;;;4.35;;
54269;SDS011;40181;51.560;13.000;2023-02-22T00:39:55;5.47;;;4.22;;
54269;SDS011;40181;51.560;13.000;2023-02-22T00:42:24;8.32;;;5.63;;
54269;SDS011;40181;51.560;13.000;2023-02-22T00:44:53;7.40;;;4.25;;
54269;SDS011;40181;51.560;13.000;2023-02-22T00:47:22;7.00;;;5.35;;
54269;SDS011;40181;51.560;13.000;2023-02-22T00:49:52;6.90;;;4.50;;
54269;SDS011;40181;51.560;13.000;2023-02-22T00:52:21;9.63;;;5.57;;
54269;SDS011;40181;51.560;13.000;2023-02-22T00:54:54;13.27;;;5.70;;
54269;SDS011;40181;51.560;13.000;2023-02-22T00:57:24;8.20;;;5.78;;
54269;SDS011;40181;51.560;13.000;2023-02-22T00:59:53;7.60;;;5.22;;
54269;SDS011;40181;51.560;13.000;2023-02-22T01:02:22;9.00;;;4.90;;
54269;SDS011;40181;51.560;13.000;2023-02-22T01:04:52;10.82;;;5.18;;
54269;SDS011;40181;51.560;13.000;2023-02-22T01:07:21;7.78;;;5.38;;
54269;SDS011;40181;51.560;13.000;2023-02-22T01:09:50;6.68;;;5.60;;
54269;SDS011;40181;51.560;13.000;2023-02-22T01:12:21;14.88;;;6.20;;
54269;SDS011;40181;51.560;13.000;2023-02-22T01:14:51;9.38;;;6.10;;
54269;SDS011;40181;51.560;13.000;2023-02-22T01:19:51;9.05;;;6.22;;
54269;SDS011;40181;51.560;13.000;2023-02-22T01:22:20;8.07;;;6.30;;
54269;SDS011;40181;51.560;13.000;2023-02-22T01:24:54;8.82;;;5.90;;
54269;SDS011;40181;51.560;13.000;2023-02-22T01:27:23;10.60;;;6.43;;
54269;SDS011;40181;51.560;13.000;2023-02-22T01:29:52;9.27;;;5.88;;
54269;SDS011;40181;51.560;13.000;2023-02-22T01:32:21;12.40;;;6.22;;
54269;SDS011;40181;51.560;13.000;2023-02-22T01:34:51;10.52;;;6.93;;
54269;SDS011;40181;51.560;13.000;2023-02-22T01:37:21;7.57;;;4.88;;
54269;SDS011;40181;51.560;13.000;2023-02-22T01:39:50;7.65;;;5.55;;
54269;SDS011;40181;51.560;13.000;2023-02-22T01:42:21;7.25;;;5.57;;
54269;SDS011;40181;51.560;13.000;2023-02-22T01:48:05;8.00;;;5.03;;
54269;SDS011;40181;51.560;13.000;2023-02-22T01:50:40;8.68;;;6.32;;
54269;SDS011;40181;51.560;13.000;2023-02-22T01:53:12;9.13;;;5.97;;
54269;SDS011;40181;51.560;13.000;2023-02-22T01:55:47;8.00;;;4.88;;
54269;SDS011;40181;51.560;13.000;2023-02-22T01:58:18;8.63;;;5.60;;
54269;SDS011;40181;51.560;13.000;2023-02-22T02:03:18;7.78;;;4.97;;
54269;SDS011;40181;51.560;13.000;2023-02-22T02:05:51;6.28;;;4.97;;
54269;SDS011;40181;51.560;13.000;2023-02-22T02:08:28;8.15;;;6.05;;
54269;SDS011;40181;51.560;13.000;2023-02-22T02:11:06;9.35;;;5.65;;
54269;SDS011;40181;51.560;13.000;2023-02-22T02:13:36;10.40;;;7.03;;
54269;SDS011;40181;51.560;13.000;2023-02-22T02:16:06;9.27;;;5.53;;
54269;SDS011;40181;51.560;13.000;2023-02-22T02:18:35;14.35;;;6.47;;
54269;SDS011;40181;51.560;13.000;2023-02-22T02:21:23;8.00;;;5.22;;
54269;SDS011;40181;51.560;13.000;2023-02-22T02:24:30;7.15;;;5.78;;
54269;SDS011;40181;51.560;13.000;2023-02-22T02:27:25;6.93;;;5.70;;
54269;SDS011;40181;51.560;13.000;2023-02-22T02:32:56;9.32;;;4.47;;
54269;SDS011;40181;51.560;13.000;2023-02-22T02:35:38;8.67;;;5.63;;
54269;SDS011;40181;51.560;13.000;2023-02-22T02:38:19;6.65;;;4.93;;
54269;SDS011;40181;51.560;13.000;2023-02-22T02:41:02;7.90;;;5.20;;
54269;SDS011;40181;51.560;13.000;2023-02-22T02:43:36;7.97;;;5.22;;
54269;SDS011;40181;51.560;13.000;2023-02-22T02:46:13;10.23;;;6.10;;
54269;SDS011;40181;51.560;13.000;2023-02-22T02:48:51;7.07;;;5.05;;
54269;SDS011;40181;51.560;13.000;2023-02-22T02:51:31;6.18;;;5.15;;
54269;SDS011;40181;51.560;13.000;2023-02-22T02:54:05;6.32;;;4.32;;
54269;SDS011;40181;51.560;13.000;2023-02-22T02:56:36;6.45;;;5.43;;
54269;SDS011;40181;51.560;13.000;2023-02-22T02:59:17;7.82;;;5.43;;
54269;SDS011;40181;51.560;13.000;2023-02-22T03:01:56;6.50;;;4.55;;
54269;SDS011;40181;51.560;13.000;2023-02-22T03:05:00;6.72;;;5.43;;
54269;SDS011;40181;51.560;13.000;2023-02-22T03:07:44;7.18;;;4.88;;
54269;SDS011;40181;51.560;13.000;2023-02-22T03:10:24;11.88;;;6.55;;
54269;SDS011;40181;51.560;13.000;2023-02-22T03:13:13;6.90;;;5.70;;
54269;SDS011;40181;51.560;13.000;2023-02-22T03:15:51;5.97;;;4.75;;
54269;SDS011;40181;51.560;13.000;2023-02-22T03:18:30;7.70;;;5.80;;
54269;SDS011;40181;51.560;13.000;2023-02-22T03:21:10;6.47;;;4.75;;
54269;SDS011;40181;51.560;13.000;2023-02-22T03:23:49;6.80;;;5.13;;
54269;SDS011;40181;51.560;13.000;2023-02-22T03:26:30;6.77;;;4.60;;
54269;SDS011;40181;51.560;13.000;2023-02-22T03:29:05;6.13;;;4.20;;
54269;SDS011;40181;51.560;13.000;2023-02-22T03:31:41;7.30;;;5.32;;
54269;SDS011;40181;51.560;13.000;2023-02-22T03:34:18;8.30;;;5.00;;
54269;SDS011;40181;51.560;13.000;2023-02-22T03:36:53;10.57;;;4.60;;
54269;SDS011;40181;51.560;13.000;2023-02-22T03:39:27;6.28;;;4.47;;
54269;SDS011;40181;51.560;13.000;2023-02-22T03:41:59;7.88;;;4.80;;
54269;SDS011;40181;51.560;13.000;2023-02-22T03:44:33;9.48;;;5.25;;
54269;SDS011;40181;51.560;13.000;2023-02-22T03:47:06;12.45;;;6.22;;
54269;SDS011;40181;51.560;13.000;2023-02-22T03:49:43;7.50;;;5.10;;
54269;SDS011;40181;51.560;13.000;2023-02-22T03:52:20;6.68;;;5.10;;
54269;SDS011;40181;51.560;13.000;2023-02-22T03:54:50;6.35;;;4.88;;
54269;SDS011;40181;51.560;13.000;2023-02-22T03:57:21;5.38;;;3.60;;
54269;SDS011;40181;51.560;13.000;2023-02-22T03:59:55;5.78;;;4.13;;
54269;SDS011;40181;51.560;13.000;2023-02-22T04:02:24;5.13;;;3.33;;
54269;SDS011;40181;51.560;13.000;2023-02-22T04:04:53;4.70;;;2.42;;
54269;SDS011;40181;51.560;13.000;2023-02-22T04:07:25;10.23;;;3.40;;
54269;SDS011;40181;51.560;13.000;2023-02-22T04:09:54;4.38;;;2.80;;
54269;SDS011;40181;51.560;13.000;2023-02-22T04:12:23;3.20;;;2.17;;
54269;SDS011;40181;51.560;13.000;2023-02-22T04:14:52;3.10;;;2.00;;
54269;SDS011;40181;51.560;13.000;2023-02-22T04:17:21;6.45;;;2.40;;
54269;SDS011;40181;51.560;13.000;2023-02-22T04:19:50;2.20;;;1.67;;
54269;SDS011;40181;51.560;13.000;2023-02-22T04:22:19;2.70;;;1.92;;
54269;SDS011;40181;51.560;13.000;2023-02-22T04:24:51;7.47;;;2.67;;
54269;SDS011;40181;51.560;13.000;2023-02-22T04:27:20;3.17;;;1.98;;
54269;SDS011;40181;51.560;13.000;2023-02-22T04:29:49;4.68;;;2.30;;
54269;SDS011;40181;51.560;13.000;2023-02-22T04:32:18;4.80;;;2.35;;
54269;SDS011;40181;51.560;13.000;2023-02-22T04:34:47;3.97;;;2.47;;
54269;SDS011;40181;51.560;13.000;2023-02-22T04:37:16;6.25;;;2.58;;
54269;SDS011;40181;51.560;13.000;2023-02-22T04:39:45;7.93;;;2.88;;
54269;SDS011;40181;51.560;13.000;2023-02-22T04:42:17;4.78;;;2.72;;
54269;SDS011;40181;51.560;13.000;2023-02-22T04:44:46;3.70;;;1.90;;
54269;SDS011;40181;51.560;13.000;2023-02-22T04:47:15;5.03;;;3.22;;
54269;SDS011;40181;51.560;13.000;2023-02-22T04:49:44;3.28;;;2.28;;
54269;SDS011;40181;51.560;13.000;2023-02-22T04:52:13;3.90;;;2.35;;
54269;SDS011;40181;51.560;13.000;2023-02-22T04:54:42;4.10;;;2.50;;
54269;SDS011;40181;51.560;13.000;2023-02-22T04:57:11;6.80;;;3.45;;
54269;SDS011;40181;51.560;13.000;2023-02-22T04:59:43;9.18;;;2.50;;
54269;SDS011;40181;51.560;13.000;2023-02-22T05:02:12;7.68;;;3.63;;
54269;SDS011;40181;51.560;13.000;2023-02-22T05:04:41;7.57;;;3.30;;
54269;SDS011;40181;51.560;13.000;2023-02-22T05:07:10;6.55;;;3.53;;
54269;SDS011;40181;51.560;13.000;2023-02-22T05:09:39;3.65;;;2.58;;
54269;SDS011;40181;51.560;13.000;2023-02-22T05:12:08;5.43;;;2.95;;
54269;SDS011;40181;51.560;13.000;2023-02-22T05:14:38;5.90;;;3.55;;
54269;SDS011;40181;51.560;13.000;2023-02-22T05:17:11;6.97;;;3.55;;
54269;SDS011;40181;51.560;13.000;2023-02-22T05:19:40;4.15;;;3.08;;
54269;SDS011;40181;51.560;13.000;2023-02-22T05:22:09;4.05;;;2.70;;
54269;SDS011;40181;51.560;13.000;2023-02-22T05:24:38;3.55;;;2.58;;
54269;SDS011;40181;51.560;13.000;2023-02-22T05:27:07;7.85;;;3.25;;
54269;SDS011;40181;51.560;13.000;2023-02-22T05:29:37;4.25;;;3.13;;
54269;SDS011;40181;51.560;13.000;2023-02-22T05:32:06;6.10;;;3.63;;
54269;SDS011;40181;51.560;13.000;2023-02-22T05:34:38;5.68;;;3.40;;
54269;SDS011;40181;51.560;13.000;2023-02-22T05:37:07;7.18;;;3.15;;
54269;SDS011;40181;51.560;13.000;2023-02-22T05:39:39;7.28;;;3.83;;
54269;SDS011;40181;51.560;13.000;2023-02-22T05:42:10;5.00;;;3.67;;
54269;SDS011;40181;51.560;13.000;2023-02-22T05:44:39;14.00;;;4.32;;
54269;SDS011;40181;51.560;13.000;2023-02-22T05:47:08;4.53;;;3.20;;
54269;SDS011;40181;51.560;13.000;2023-02-22T05:49:40;5.43;;;3.30;;
54269;SDS011;40181;51.560;13.000;2023-02-22T05:52:09;4.55;;;3.15;;
54269;SDS011;40181;51.560;13.000;2023-02-22T05:54:38;7.18;;;3.75;;
54269;SDS011;40181;51.560;13.000;2023-02-22T05:57:07;7.45;;;4.28;;
54269;SDS011;40181;51.560;13.000;2023-02-22T05:59:36;5.53;;;3.92;;
54269;SDS011;40181;51.560;13.000;2023-02-22T06:02:05;5.80;;;3.55;;
54269;SDS011;40181;51.560;13.000;2023-02-22T06:04:34;6.10;;;4.25;;
54269;SDS011;40181;51.560;13.000;2023-02-22T06:07:06;5.40;;;4.15;;
54269;SDS011;40181;51.560;13.000;2023-02-22T06:09:35;7.40;;;4.13;;
54269;SDS011;40181;51.560;13.000;2023-02-22T06:12:05;6.13;;;3.55;;
54269;SDS011;40181;51.560;13.000;2023-02-22T06:14:35;6.55;;;4.15;;
54269;SDS011;40181;51.560;13.000;2023-02-22T06:17:05;4.80;;;3.40;;
54269;SDS011;40181;51.560;13.000;2023-02-22T06:19:34;6.82;;;4.05;;
54269;SDS011;40181;51.560;13.000;2023-02-22T06:22:07;7.18;;;4.82;;
54269;SDS011;40181;51.560;13.000;2023-02-22T06:24:41;9.40;;;4.57;;
54269;SDS011;40181;51.560;13.000;2023-02-22T06:27:10;7.63;;;4.30;;
54269;SDS011;40181;51.560;13.000;2023-02-22T06:29:43;7.60;;;4.55;;
54269;SDS011;40181;51.560;13.000;2023-02-22T06:32:13;7.68;;;4.85;;
54269;SDS011;40181;51.560;13.000;2023-02-22T06:34:42;6.03;;;3.70;;
54269;SDS011;40181;51.560;13.000;2023-02-22T06:37:15;5.18;;;4.05;;
54269;SDS011;40181;51.560;13.000;2023-02-22T06:39:44;9.88;;;4.72;;
54269;SDS011;40181;51.560;13.000;2023-02-22T06:42:13;12.80;;;4.20;;
54269;SDS011;40181;51.560;13.000;2023-02-22T06:44:42;8.73;;;4.28;;
54269;SDS011;40181;51.560;13.000;2023-02-22T06:47:13;5.15;;;3.78;;
54269;SDS011;40181;51.560;13.000;2023-02-22T06:49:43;11.00;;;3.78;;
54269;SDS011;40181;51.560;13.000;2023-02-22T06:52:12;5.60;;;3.47;;
54269;SDS011;40181;51.560;13.000;2023-02-22T06:54:43;7.53;;;4.38;;
54269;SDS011;40181;51.560;13.000;2023-02-22T06:57:12;9.02;;;5.38;;
54269;SDS011;40181;51.560;13.000;2023-02-22T06:59:41;15.65;;;4.93;;
54269;SDS011;40181;51.560;13.000;2023-02-22T07:02:11;10.02;;;6.32;;
54269;SDS011;40181;51.560;13.000;2023-02-22T07:04:41;12.57;;;5.53;;
54269;SDS011;40181;51.560;13.000;2023-02-22T07:07:11;6.80;;;4.28;;
54269;SDS011;40181;51.560;13.000;2023-02-22T07:09:44;6.50;;;4.35;;
54269;SDS011;40181;51.560;13.000;2023-02-22T07:12:14;6.63;;;3.90;;
54269;SDS011;40181;51.560;13.000;2023-02-22T07:14:43;7.78;;;3.88;;
54269;SDS011;40181;51.560;13.000;2023-02-22T07:17:12;6.38;;;3.72;;
54269;SDS011;40181;51.560;13.000;2023-02-22T07:19:41;6.72;;;4.80;;
54269;SDS011;40181;51.560;13.000;2023-02-22T07:22:10;6.00;;;4.32;;
54269;SDS011;40181;51.560;13.000;2023-02-22T07:24:41;7.15;;;4.25;;
54269;SDS011;40181;51.560;13.000;2023-02-22T07:27:11;12.35;;;5.95;;
54269;SDS011;40181;51.560;13.000;2023-02-22T07:29:41;5.47;;;4.17;;
54269;SDS011;40181;51.560;13.000;2023-02-22T07:32:10;8.85;;;4.40;;
54269;SDS011;40181;51.560;13.000;2023-02-22T07:34:40;9.98;;;4.03;;
54269;SDS011;40181;51.560;13.000;2023-02-22T07:37:09;4.80;;;3.88;;
54269;SDS011;40181;51.560;13.000;2023-02-22T07:39:38;6.95;;;3.58;;
54269;SDS011;40181;51.560;13.000;2023-02-22T07:42:10;8.73;;;4.47;;
54269;SDS011;40181;51.560;13.000;2023-02-22T07:44:39;12.05;;;4.25;;
54269;SDS011;40181;51.560;13.000;2023-02-22T07:47:08;7.70;;;4.57;;
54269;SDS011;40181;51.560;13.000;2023-02-22T07:49:37;7.70;;;3.72;;
54269;SDS011;40181;51.560;13.000;2023-02-22T07:52:06;7.15;;;4.18;;
54269;SDS011;40181;51.560;13.000;2023-02-22T07:54:36;6.72;;;3.85;;
54269;SDS011;40181;51.560;13.000;2023-02-22T07:57:08;6.10;;;3.83;;
54269;SDS011;40181;51.560;13.000;2023-02-22T07:59:37;9.73;;;4.15;;
54269;SDS011;40181;51.560;13.000;2023-02-22T08:02:08;6.57;;;4.05;;
54269;SDS011;40181;51.560;13.000;2023-02-22T08:04:42;7.63;;;3.75;;
54269;SDS011;40181;51.560;13.000;2023-02-22T08:07:11;5.85;;;3.88;;
54269;SDS011;40181;51.560;13.000;2023-02-22T08:09:40;4.60;;;3.53;;
54269;SDS011;40181;51.560;13.000;2023-02-22T08:12:12;6.40;;;3.90;;
54269;SDS011;40181;51.560;13.000;2023-02-22T08:14:41;8.20;;;3.78;;
54269;SDS011;40181;51.560;13.000;2023-02-22T08:17:10;6.93;;;4.22;;
54269;SDS011;40181;51.560;13.000;2023-02-22T08:19:39;9.40;;;5.38;;
54269;SDS011;40181;51.560;13.000;2023-02-22T08:22:08;5.43;;;3.42;;
54269;SDS011;40181;51.560;13.000;2023-02-22T08:24:37;6.47;;;4.07;;
54269;SDS011;40181;51.560;13.000;2023-02-22T08:27:07;4.30;;;3.22;;
54269;SDS011;40181;51.560;13.000;2023-02-22T08:29:38;8.50;;;4.95;;
54269;SDS011;40181;51.560;13.000;2023-02-22T08:32:08;5.53;;;3.53;;
54269;SDS011;40181;51.560;13.000;2023-02-22T08:34:37;9.75;;;4.47;;
54269;SDS011;40181;51.560;13.000;2023-02-22T08:37:06;7.90;;;5.28;;
54269;SDS011;40181;51.560;13.000;2023-02-22T08:39:35;8.25;;;5.40;;
54269;SDS011;40181;51.560;13.000;2023-02-22T08:42:05;6.53;;;4.70;;
54269;SDS011;40181;51.560;13.000;2023-02-22T08:47:07;8.75;;;4.95;;
54269;SDS011;40181;51.560;13.000;2023-02-22T08:49:36;6.70;;;4.72;;
54269;SDS011;40181;51.560;13.000;2023-02-22T08:52:06;6.43;;;4.47;;
54269;SDS011;40181;51.560;13.000;2023-02-22T08:54:35;12.70;;;6.75;;
54269;SDS011;40181;51.560;13.000;2023-02-22T08:57:04;8.00;;;5.28;;
54269;SDS011;40181;51.560;13.000;2023-02-22T08:59:33;9.20;;;5.93;;
54269;SDS011;40181;51.560;13.000;2023-02-22T09:02:07;11.02;;;6.22;;
54269;SDS011;40181;51.560;13.000;2023-02-22T09:04:42;12.85;;;4.97;;
54269;SDS011;40181;51.560;13.000;2023-02-22T09:07:12;7.57;;;4.93;;
54269;SDS011;40181;51.560;13.000;2023-02-22T09:09:42;11.02;;;5.45;;
54269;SDS011;40181;51.560;13.000;2023-02-22T09:12:11;12.82;;;6.35;;
54269;SDS011;40181;51.560;13.000;2023-02-22T09:14:41;9.65;;;5.90;;
54269;SDS011;40181;51.560;13.000;2023-02-22T09:17:12;10.13;;;6.70;;
54269;SDS011;40181;51.560;13.000;2023-02-22T09:19:41;15.98;;;7.45;;
54269;SDS011;40181;51.560;13.000;2023-02-22T09:22:11;11.68;;;5.88;;
54269;SDS011;40181;51.560;13.000;2023-02-22T09:24:40;10.25;;;7.18;;
54269;SDS011;40181;51.560;13.000;2023-02-22T09:27:09;10.75;;;6.82;;
54269;SDS011;40181;51.560;13.000;2023-02-22T09:29:39;11.57;;;7.25;;
54269;SDS011;40181;51.560;13.000;2023-02-22T09:32:08;14.52;;;7.85;;
54269;SDS011;40181;51.560;13.000;2023-02-22T09:34:40;9.20;;;6.40;;
54269;SDS011;40181;51.560;13.000;2023-02-22T09:37:09;11.52;;;6.18;;
54269;SDS011;40181;51.560;13.000;2023-02-22T09:39:39;10.38;;;7.07;;
54269;SDS011;40181;51.560;13.000;2023-02-22T09:42:10;8.32;;;6.65;;
54269;SDS011;40181;51.560;13.000;2023-02-22T09:44:45;14.10;;;6.85;;
54269;SDS011;40181;51.560;13.000;2023-02-22T09:47:19;10.85;;;6.90;;
54269;SDS011;40181;51.560;13.000;2023-02-22T09:50:00;13.98;;;6.05;;
54269;SDS011;40181;51.560;13.000;2023-02-22T09:52:40;9.82;;;6.90;;
54269;SDS011;40181;51.560;13.000;2023-02-22T09:55:24;8.52;;;7.20;;
54269;SDS011;40181;51.560;13.000;2023-02-22T09:58:01;15.03;;;8.23;;
54269;SDS011;40181;51.560;13.000;2023-02-22T10:00:36;9.77;;;6.93;;
54269;SDS011;40181;51.560;13.000;2023-02-22T10:03:15;9.70;;;7.38;;
54269;SDS011;40181;51.560;13.000;2023-02-22T10:05:53;14.30;;;7.70;;
54269;SDS011;40181;51.560;13.000;2023-02-22T10:08:29;12.98;;;8.27;;
54269;SDS011;40181;51.560;13.000;2023-02-22T10:11:04;12.13;;;7.50;;
54269;SDS011;40181;51.560;13.000;2023-02-22T10:13:46;8.95;;;7.05;;
54269;SDS011;40181;51.560;13.000;2023-02-22T10:16:25;19.20;;;8.68;;
54269;SDS011;40181;51.560;13.000;2023-02-22T10:19:06;12.48;;;8.23;;
54269;SDS011;40181;51.560;13.000;2023-02-22T10:21:58;10.45;;;7.18;;
54269;SDS011;40181;51.560;13.000;2023-02-22T10:24:51;13.77;;;7.32;;
54269;SDS011;40181;51.560;13.000;2023-02-22T10:30:03;11.90;;;5.95;;
54269;SDS011;40181;51.560;13.000;2023-02-22T10:32:42;10.15;;;6.75;;
54269;SDS011;40181;51.560;13.000;2023-02-22T10:35:16;11.48;;;8.30;;
54269;SDS011;40181;51.560;13.000;2023-02-22T10:37:54;14.93;;;8.57;;
54269;SDS011;40181;51.560;13.000;2023-02-22T10:40:27;15.15;;;8.45;;
54269;SDS011;40181;51.560;13.000;2023-02-22T10:43:02;16.40;;;8.07;;
54269;SDS011;40181;51.560;13.000;2023-02-22T10:45:35;15.02;;;8.73;;
54269;SDS011;40181;51.560;13.000;2023-02-22T10:48:05;11.85;;;9.25;;
54269;SDS011;40181;51.560;13.000;2023-02-22T10:50:38;14.48;;;9.30;;
54269;SDS011;40181;51.560;13.000;2023-02-22T10:53:12;11.27;;;8.00;;
54269;SDS011;40181;51.560;13.000;2023-02-22T10:58:44;42.78;;;11.35;;
54269;SDS011;40181;51.560;13.000;2023-02-22T11:01:16;15.45;;;8.07;;
54269;SDS011;40181;51.560;13.000;2023-02-22T11:03:56;11.80;;;7.57;;
54269;SDS011;40181;51.560;13.000;2023-02-22T11:06:33;15.55;;;7.68;;
54269;SDS011;40181;51.560;13.000;2023-02-22T11:09:06;24.67;;;8.48;;
54269;SDS011;40181;51.560;13.000;2023-02-22T11:11:40;142.20;;;31.45;;
54269;SDS011;40181;51.560;13.000;2023-02-22T11:14:12;54.80;;;19.00;;
54269;SDS011;40181;51.560;13.000;2023-02-22T11:16:54;22.70;;;10.00;;
54269;SDS011;40181;51.560;13.000;2023-02-22T11:19:25;16.70;;;10.48;;
54269;SDS011;40181;51.560;13.000;2023-02-22T11:21:57;12.05;;;7.70;;
54269;SDS011;40181;51.560;13.000;2023-02-22T11:24:46;9.48;;;6.75;;
54269;SDS011;40181;51.560;13.000;2023-02-22T11:27:24;9.38;;;7.38;;
54269;SDS011;40181;51.560;13.000;2023-02-22T11:30:20;11.95;;;6.93;;
54269;SDS011;40181;51.560;13.000;2023-02-22T11:32:57;9.32;;;6.63;;
54269;SDS011;40181;51.560;13.000;2023-02-22T11:35:33;9.45;;;7.53;;
54269;SDS011;40181;51.560;13.000;2023-02-22T11:38:09;10.07;;;7.90;;
54269;SDS011;40181;51.560;13.000;2023-02-22T11:40:48;11.70;;;7.28;;
54269;SDS011;40181;51.560;13.000;2023-02-22T11:43:34;10.02;;;6.45;;
54269;SDS011;40181;51.560;13.000;2023-02-22T11:46:04;9.90;;;6.10;;
54269;SDS011;40181;51.560;13.000;2023-02-22T11:48:39;6.88;;;5.50;;
54269;SDS011;40181;51.560;13.000;2023-02-22T11:51:20;13.82;;;7.72;;
54269;SDS011;40181;51.560;13.000;2023-02-22T11:54:16;11.32;;;5.93;;
54269;SDS011;40181;51.560;13.000;2023-02-22T11:57:02;9.90;;;7.30;;
54269;SDS011;40181;51.560;13.000;2023-02-22T11:59:49;14.15;;;7.50;;
54269;SDS011;40181;51.560;13.000;2023-02-22T12:02:45;84.03;;;20.52;;
54269;SDS011;40181;51.560;13.000;2023-02-22T12:05:57;99.78;;;24.08;;
54269;SDS011;40181;51.560;13.000;2023-02-22T12:08:41;29.02;;;11.35;;
54269;SDS011;40181;51.560;13.000;2023-02-22T12:11:26;16.25;;;7.78;;
54269;SDS011;40181;51.560;13.000;2023-02-22T12:14:10;8.05;;;6.05;;
54269;SDS011;40181;51.560;13.000;2023-02-22T12:16:55;8.10;;;6.53;;
54269;SDS011;40181;51.560;13.000;2023-02-22T12:19:45;9.65;;;6.82;;
54269;SDS011;40181;51.560;13.000;2023-02-22T12:22:18;10.10;;;5.95;;
54269;SDS011;40181;51.560;13.000;2023-02-22T12:24:53;8.65;;;6.60;;
54269;SDS011;40181;51.560;13.000;2023-02-22T12:27:29;7.95;;;5.57;;
54269;SDS011;40181;51.560;13.000;2023-02-22T12:30:08;6.88;;;5.18;;
54269;SDS011;40181;51.560;13.000;2023-02-22T12:32:46;8.02;;;5.63;;
54269;SDS011;40181;51.560;13.000;2023-02-22T12:35:19;8.93;;;4.93;;
54269;SDS011;40181;51.560;13.000;2023-02-22T12:37:53;10.02;;;5.13;;
54269;SDS011;40181;51.560;13.000;2023-02-22T12:40:32;9.07;;;7.73;;
54269;SDS011;40181;51.560;13.000;2023-02-22T12:43:10;11.00;;;7.28;;
54269;SDS011;40181;51.560;13.000;2023-02-22T12:45:49;15.02;;;7.35;;
54269;SDS011;40181;51.560;13.000;2023-02-22T12:48:32;7.30;;;5.45;;
54269;SDS011;40181;51.560;13.000;2023-02-22T12:51:18;8.48;;;5.93;;
54269;SDS011;40181;51.560;13.000;2023-02-22T12:53:57;6.43;;;4.88;;
54269;SDS011;40181;51.560;13.000;2023-02-22T12:56:36;10.07;;;6.03;;
54269;SDS011;40181;51.560;13.000;2023-02-22T12:59:11;11.35;;;6.63;;
54269;SDS011;40181;51.560;13.000;2023-02-22T13:01:49;8.88;;;5.63;;
54269;SDS011;40181;51.560;13.000;2023-02-22T13:04:22;9.10;;;5.47;;
54269;SDS011;40181;51.560;13.000;2023-02-22T13:07:03;8.00;;;5.80;;
54269;SDS011;40181;51.560;13.000;2023-02-22T13:09:51;16.27;;;7.18;;
54269;SDS011;40181;51.560;13.000;2023-02-22T13:12:48;15.10;;;6.88;;
54269;SDS011;40181;51.560;13.000;2023-02-22T13:15:29;8.75;;;6.78;;
54269;SDS011;40181;51.560;13.000;2023-02-22T13:18:08;7.97;;;5.82;;
54269;SDS011;40181;51.560;13.000;2023-02-22T13:20:49;9.88;;;7.15;;
54269;SDS011;40181;51.560;13.000;2023-02-22T13:23:34;11.90;;;6.28;;
54269;SDS011;40181;51.560;13.000;2023-02-22T13:26:14;10.55;;;5.90;;
54269;SDS011;40181;51.560;13.000;2023-02-22T13:28:53;8.77;;;6.28;;
54269;SDS011;40181;51.560;13.000;2023-02-22T13:31:37;11.93;;;6.45;;
54269;SDS011;40181;51.560;13.000;2023-02-22T13:40:45;7.43;;;4.60;;
54269;SDS011;40181;51.560;13.000;2023-02-22T13:43:47;8.82;;;6.35;;
54269;SDS011;40181;51.560;13.000;2023-02-22T13:46:38;6.00;;;4.95;;
54269;SDS011;40181;51.560;13.000;2023-02-22T13:49:38;7.82;;;5.25;;
54269;SDS011;40181;51.560;13.000;2023-02-22T13:55:00;8.45;;;6.15;;
54269;SDS011;40181;51.560;13.000;2023-02-22T13:57:36;8.93;;;5.35;;
54269;SDS011;40181;51.560;13.000;2023-02-22T14:00:20;45.85;;;12.57;;
54269;SDS011;40181;51.560;13.000;2023-02-22T14:03:06;164.55;;;31.25;;
54269;SDS011;40181;51.560;13.000;2023-02-22T14:06:08;24.30;;;9.23;;
54269;SDS011;40181;51.560;13.000;2023-02-22T14:08:42;7.50;;;5.05;;
54269;SDS011;40181;51.560;13.000;2023-02-22T14:14:13;5.97;;;4.00;;
54269;SDS011;40181;51.560;13.000;2023-02-22T14:28:53;9.95;;;5.25;;
54269;SDS011;40181;51.560;13.000;2023-02-22T14:31:25;33.47;;;11.15;;
54269;SDS011;40181;51.560;13.000;2023-02-22T14:34:03;7.57;;;5.53;;
54269;SDS011;40181;51.560;13.000;2023-02-22T14:36:40;7.25;;;4.15;;
54269;SDS011;40181;51.560;13.000;2023-02-22T14:39:22;8.05;;;5.65;;
54269;SDS011;40181;51.560;13.000;2023-02-22T14:41:59;13.35;;;5.80;;
54269;SDS011;40181;51.560;13.000;2023-02-22T14:44:33;8.05;;;5.43;;
54269;SDS011;40181;51.560;13.000;2023-02-22T14:47:12;12.15;;;6.25;;
54269;SDS011;40181;51.560;13.000;2023-02-22T14:49:47;7.93;;;4.90;;
54269;SDS011;40181;51.560;13.000;2023-02-22T14:52:21;12.57;;;5.15;;
54269;SDS011;40181;51.560;13.000;2023-02-22T14:55:01;9.63;;;4.90;;
54269;SDS011;40181;51.560;13.000;2023-02-22T14:57:48;9.10;;;5.20;;
54269;SDS011;40181;51.560;13.000;2023-02-22T15:00:27;7.07;;;4.35;;
54269;SDS011;40181;51.560;13.000;2023-02-22T15:03:10;7.47;;;4.50;;
54269;SDS011;40181;51.560;13.000;2023-02-22T15:05:52;8.43;;;4.30;;
54269;SDS011;40181;51.560;13.000;2023-02-22T15:08:24;6.97;;;5.07;;
54269;SDS011;40181;51.560;13.000;2023-02-22T15:10:55;9.65;;;4.40;;
54269;SDS011;40181;51.560;13.000;2023-02-22T15:13:27;9.80;;;5.18;;
54269;SDS011;40181;51.560;13.000;2023-02-22T15:16:00;7.53;;;4.55;;
54269;SDS011;40181;51.560;13.000;2023-02-22T15:18:33;5.43;;;4.43;;
54269;SDS011;40181;51.560;13.000;2023-02-22T15:21:08;9.35;;;4.15;;
54269;SDS011;40181;51.560;13.000;2023-02-22T15:23:44;8.10;;;5.55;;
54269;SDS011;40181;51.560;13.000;2023-02-22T15:26:21;7.13;;;4.43;;
54269;SDS011;40181;51.560;13.000;2023-02-22T15:28:59;7.90;;;4.65;;
54269;SDS011;40181;51.560;13.000;2023-02-22T15:31:30;7.05;;;4.75;;
54269;SDS011;40181;51.560;13.000;2023-02-22T15:34:17;7.97;;;4.82;;
54269;SDS011;40181;51.560;13.000;2023-02-22T15:36:51;6.22;;;3.67;;
54269;SDS011;40181;51.560;13.000;2023-02-22T15:39:23;5.95;;;3.70;;
54269;SDS011;40181;51.560;13.000;2023-02-22T15:42:03;3.72;;;2.80;;
54269;SDS011;40181;51.560;13.000;2023-02-22T15:44:35;5.03;;;3.53;;
54269;SDS011;40181;51.560;13.000;2023-02-22T15:47:08;5.45;;;2.90;;
54269;SDS011;40181;51.560;13.000;2023-02-22T15:49:43;5.03;;;3.83;;
54269;SDS011;40181;51.560;13.000;2023-02-22T15:52:16;6.37;;;4.10;;
54269;SDS011;40181;51.560;13.000;2023-02-22T15:54:50;4.90;;;3.60;;
54269;SDS011;40181;51.560;13.000;2023-02-22T15:57:22;5.60;;;3.90;;